| time (UTC) | temp F | wind direction | speed MPH | gust MPH | rain 1hr in | rain 24hr in | rain mn in | humidity % | barometer mb |
| 20260502213753 | 53 | 43 | 1.0 | 3.0 | 0.00 | 0.00 | 0.00 | 95 | 1014.1 |
| 20260502212753 | 53 | 43 | 1.0 | 3.0 | 0.00 | 0.00 | 0.00 | 94 | 1014.2 |
| 20260502211753 | 53 | 34 | 1.0 | 2.0 | 0.00 | 0.00 | 0.00 | 93 | 1014.4 |
| 20260502210755 | 53 | 34 | 0.0 | 0.0 | 0.00 | 0.00 | 0.00 | 93 | 1014.5 |
| 20260502205753 | 53 | 34 | 0.0 | 1.0 | 0.00 | 0.00 | 0.00 | 92 | 1014.5 |
| 20260502204752 | 53 | 34 | 0.0 | 2.0 | 0.00 | 0.00 | 0.00 | 92 | 1014.6 |
| 20260502203755 | 54 | 34 | 0.0 | 3.0 | 0.00 | 0.00 | 0.00 | 91 | 1014.7 |
| 20260502202754 | 55 | 20 | 1.0 | 3.0 | 0.00 | 0.00 | 0.00 | 90 | 1014.7 |
| 20260502201754 | 55 | 19 | 1.0 | 5.0 | 0.00 | 0.00 | 0.00 | 90 | 1014.8 |
| 20260502201227 | 55 | 322 | 1.0 | 6.0 | 0.00 | 0.00 | 0.00 | 90 | 1014.9 |
| 20260502195752 | 55 | 346 | 2.0 | 5.0 | 0.00 | 0.00 | 0.00 | 90 | 1014.9 |
| 20260502194750 | 56 | 336 | 2.0 | 5.0 | 0.00 | 0.00 | 0.00 | 90 | 1014.9 |
| 20260502193750 | 56 | 324 | 2.0 | 5.0 | 0.00 | 0.00 | 0.00 | 89 | 1014.9 |
| 20260502192747 | 57 | 17 | 3.0 | 7.0 | 0.00 | 0.00 | 0.00 | 89 | 1014.9 |
| 20260502192225 | 57 | 355 | 3.0 | 5.0 | 0.00 | 0.00 | 0.00 | 89 | 1015.0 |
| 20260502191229 | 58 | 324 | 4.0 | 6.0 | 0.00 | 0.00 | 0.00 | 88 | 1014.9 |
| 20260502185745 | 58 | 324 | 4.0 | 7.0 | 0.00 | 0.00 | 0.00 | 88 | 1014.9 |
| 20260502183743 | 60 | 341 | 6.0 | 10.0 | 0.00 | 0.00 | 0.00 | 85 | 1015.0 |
| 20260502182744 | 60 | 315 | 6.0 | 11.0 | 0.00 | 0.00 | 0.00 | 81 | 1015.1 |
| 20260502181741 | 61 | 310 | 6.0 | 9.0 | 0.00 | 0.00 | 0.00 | 78 | 1014.9 |
| 20260502180741 | 61 | 328 | 5.0 | 7.0 | 0.00 | 0.00 | 0.00 | 75 | 1015.1 |
| 20260502180231 | 0 | 324 | 4.0 | 9.0 | 0.00 | 0.00 | 0.00 | 1015.1 | |
| 20260502163729 | 66 | 281 | 4.0 | 10.0 | 0.00 | 0.00 | 0.00 | 66 | 1015.6 |
| 20260502163159 | 66 | 260 | 5.0 | 11.0 | 0.00 | 0.00 | 0.00 | 67 | 1015.7 |
| 20260502161727 | 66 | 317 | 4.0 | 10.0 | 0.00 | 0.00 | 0.00 | 70 | 1015.8 |
| 20260502160728 | 67 | 269 | 4.0 | 11.0 | 0.00 | 0.00 | 0.00 | 72 | 1015.8 |
| 20260502151721 | 68 | 274 | 5.0 | 14.0 | 0.00 | 0.00 | 0.00 | 75 | 1016.1 |
| 20260502150722 | 68 | 263 | 8.0 | 14.0 | 0.00 | 0.00 | 0.00 | 74 | 1016.2 |
| 20260502130711 | 70 | 274 | 9.0 | 19.0 | 0.00 | 0.00 | 0.00 | 70 | 1016.8 |
| 20260502123707 | 70 | 222 | 11.0 | 17.0 | 0.00 | 0.00 | 0.00 | 70 | 1016.9 |
| 20260502122706 | 70 | 270 | 7.0 | 15.0 | 0.00 | 0.00 | 0.00 | 72 | 1016.9 |
| 20260502121706 | 69 | 276 | 7.0 | 14.0 | 0.00 | 0.00 | 0.00 | 72 | 1017.1 |
| 20260502120704 | 70 | 249 | 9.0 | 14.0 | 0.00 | 0.00 | 0.00 | 71 | 1017.2 |
| 20260502115704 | 70 | 249 | 6.0 | 14.0 | 0.00 | 0.00 | 0.00 | 71 | 1017.2 |
| 20260502114704 | 69 | 290 | 3.0 | 12.0 | 0.00 | 0.00 | 0.00 | 71 | 1017.3 |
| 20260502113703 | 68 | 210 | 6.0 | 13.0 | 0.00 | 0.00 | 0.00 | 70 | 1017.5 |
| 20260502112705 | 68 | 281 | 6.0 | 13.0 | 0.00 | 0.00 | 0.00 | 73 | 1017.5 |
| 20260502111705 | 67 | 248 | 5.0 | 11.0 | 0.00 | 0.00 | 0.00 | 71 | 1017.7 |
| 20260502111142 | 67 | 245 | 5.0 | 9.0 | 0.00 | 0.00 | 0.00 | 74 | 1017.5 |
| 20260502105706 | 64 | 291 | 3.0 | 10.0 | 0.00 | 0.00 | 0.00 | 74 | 1017.6 |
| 20260502104705 | 63 | 202 | 6.0 | 9.0 | 0.00 | 0.00 | 0.00 | 74 | 1017.7 |
| 20260502103705 | 62 | 242 | 4.0 | 5.0 | 0.00 | 0.00 | 0.00 | 75 | 1017.6 |
| 20260502102704 | 62 | 257 | 4.0 | 6.0 | 0.00 | 0.00 | 0.00 | 75 | 1017.4 |
| 20260502101705 | 61 | 233 | 2.0 | 5.0 | 0.00 | 0.00 | 0.00 | 76 | 1017.5 |
| 20260502100706 | 60 | 255 | 4.0 | 7.0 | 0.00 | 0.00 | 0.00 | 75 | 1017.7 |
| 20260502091142 | 62 | 222 | 5.0 | 9.0 | 0.00 | 0.00 | 0.00 | 72 | 1018.0 |
| 20260502070657 | 59 | 201 | 4.0 | 7.0 | 0.00 | 0.00 | 0.00 | 71 | 1017.9 |
| 20260502065659 | 58 | 176 | 4.0 | 7.0 | 0.00 | 0.00 | 0.00 | 70 | 1017.9 |
| 20260502064658 | 57 | 184 | 4.0 | 9.0 | 0.00 | 0.00 | 0.00 | 71 | 1017.9 |
| 20260502063657 | 57 | 191 | 5.0 | 9.0 | 0.00 | 0.00 | 0.00 | 72 | 1017.8 |
| 20260502062657 | 56 | 170 | 4.0 | 7.0 | 0.00 | 0.00 | 0.00 | 73 | 1017.7 |
| 20260502061658 | 55 | 166 | 5.0 | 7.0 | 0.00 | 0.00 | 0.00 | 74 | 1017.7 |
| 20260502060659 | 54 | 159 | 3.0 | 5.0 | 0.00 | 0.00 | 0.00 | 75 | 1017.7 |
| 20260502055657 | 53 | 176 | 3.0 | 5.0 | 0.00 | 0.00 | 0.00 | 77 | 1017.7 |
| 20260502054656 | 52 | 177 | 2.0 | 5.0 | 0.00 | 0.00 | 0.00 | 78 | 1017.8 |
| 20260502053658 | 51 | 138 | 3.0 | 9.0 | 0.00 | 0.00 | 0.00 | 78 | 1017.8 |
| 20260502052657 | 50 | 188 | 3.0 | 5.0 | 0.00 | 0.00 | 0.00 | 81 | 1017.9 |
| 20260502051659 | 49 | 179 | 3.0 | 6.0 | 0.00 | 0.00 | 0.00 | 82 | 1017.9 |
| 20260502050656 | 48 | 160 | 2.0 | 4.0 | 0.00 | 0.00 | 0.00 | 82 | 1017.8 |
| 20260502045657 | 48 | 163 | 3.0 | 4.0 | 0.00 | 0.00 | 0.00 | 83 | 1017.9 |
| 20260502044659 | 47 | 152 | 2.0 | 5.0 | 0.00 | 0.00 | 0.00 | 84 | 1017.9 |
| 20260502043658 | 46 | 170 | 3.0 | 4.0 | 0.00 | 0.00 | 0.00 | 85 | 1017.8 |
| 20260502042657 | 46 | 163 | 2.0 | 4.0 | 0.00 | 0.00 | 0.00 | 85 | 1017.9 |
| 20260502041658 | 46 | 157 | 3.0 | 4.0 | 0.00 | 0.00 | 0.00 | 86 | 1017.8 |
| 20260502040657 | 46 | 171 | 3.0 | 5.0 | 0.00 | 0.00 | 0.00 | 86 | 1017.9 |
| 20260502035658 | 46 | 150 | 2.0 | 4.0 | 0.00 | 0.00 | 0.00 | 85 | 1018.2 |
| 20260502034657 | 46 | 136 | 2.0 | 4.0 | 0.00 | 0.00 | 0.00 | 85 | 1018.2 |
| 20260502033658 | 47 | 139 | 2.0 | 3.0 | 0.00 | 0.00 | 0.00 | 85 | 1018.2 |
| 20260502032659 | 47 | 135 | 2.0 | 4.0 | 0.00 | 0.00 | 0.00 | 85 | 1018.3 |
| 20260502032142 | 47 | 139 | 2.0 | 4.0 | 0.00 | 0.00 | 0.00 | 84 | 1018.3 |
| 20260502031148 | 47 | 139 | 2.0 | 4.0 | 0.00 | 0.00 | 0.00 | 84 | 1018.3 |
| 20260502025659 | 47 | 139 | 2.0 | 4.0 | 0.00 | 0.00 | 0.00 | 84 | 1018.4 |
| 20260502024656 | 48 | 136 | 2.0 | 4.0 | 0.00 | 0.00 | 0.00 | 83 | 1018.4 |
| 20260502023657 | 48 | 140 | 2.0 | 4.0 | 0.00 | 0.00 | 0.00 | 82 | 1018.5 |
| 20260502022655 | 48 | 138 | 2.0 | 4.0 | 0.00 | 0.00 | 0.00 | 82 | 1018.6 |
| 20260502021658 | 49 | 135 | 3.0 | 4.0 | 0.00 | 0.00 | 0.00 | 82 | 1018.6 |
| 20260502015655 | 49 | 143 | 3.0 | 4.0 | 0.00 | 0.00 | 0.00 | 82 | 1018.8 |
| 20260502014654 | 49 | 132 | 2.0 | 4.0 | 0.00 | 0.00 | 0.00 | 82 | 1018.8 |
| 20260502013702 | 50 | 129 | 2.0 | 4.0 | 0.00 | 0.00 | 0.00 | 82 | 1018.9 |
| 20260502012652 | 50 | 131 | 2.0 | 4.0 | 0.00 | 0.00 | 0.00 | 82 | 1019.0 |
| 20260502011654 | 50 | 125 | 2.0 | 4.0 | 0.00 | 0.00 | 0.00 | 81 | 1019.1 |
| 20260502010655 | 50 | 133 | 3.0 | 4.0 | 0.00 | 0.00 | 0.00 | 81 | 1019.3 |
| 20260502005652 | 50 | 133 | 2.0 | 4.0 | 0.00 | 0.00 | 0.00 | 81 | 1019.5 |
| 20260502005130 | 50 | 129 | 2.0 | 3.0 | 0.00 | 0.00 | 0.00 | 82 | 1019.6 |
| 20260502003652 | 50 | 126 | 2.0 | 3.0 | 0.00 | 0.00 | 0.00 | 81 | 1019.8 |
| 20260502002654 | 50 | 126 | 1.0 | 2.0 | 0.00 | 0.00 | 0.00 | 79 | 1019.8 |
| 20260502001653 | 51 | 126 | 0.0 | 2.0 | 0.00 | 0.00 | 0.00 | 79 | 1019.9 |
| 20260502000702 | 51 | 126 | 1.0 | 3.0 | 0.00 | 0.00 | 0.00 | 80 | 1019.8 |
| 20260501235653 | 51 | 126 | 2.0 | 3.0 | 0.00 | 0.00 | 0.00 | 80 | 1020.0 |
| 20260501234652 | 51 | 126 | 2.0 | 3.0 | 0.00 | 0.00 | 0.00 | 79 | 1020.1 |
| 20260501234136 | 52 | 126 | 2.0 | 2.0 | 0.00 | 0.00 | 0.00 | 78 | 1020.2 |
| 20260501232653 | 52 | 126 | 2.0 | 3.0 | 0.00 | 0.00 | 0.00 | 78 | 1020.2 |
| 20260501231652 | 52 | 126 | 2.0 | 3.0 | 0.00 | 0.00 | 0.00 | 78 | 1020.3 |
| 20260501230652 | 52 | 140 | 1.0 | 3.0 | 0.00 | 0.00 | 0.00 | 78 | 1020.4 |
| 20260501225653 | 52 | 140 | 1.0 | 2.0 | 0.00 | 0.00 | 0.00 | 77 | 1020.4 |
| 20260501224654 | 52 | 140 | 1.0 | 2.0 | 0.00 | 0.00 | 0.00 | 78 | 1020.5 |
| 20260501223653 | 53 | 140 | 2.0 | 3.0 | 0.00 | 0.00 | 0.00 | 77 | 1020.5 |
| 20260501222654 | 53 | 140 | 1.0 | 2.0 | 0.00 | 0.00 | 0.00 | 76 | 1020.6 |
| 20260501221653 | 53 | 140 | 1.0 | 2.0 | 0.00 | 0.00 | 0.00 | 76 | 1020.6 |
| 20260501221259 | 53 | 140 | 2.0 | 3.0 | 0.00 | 0.00 | 0.00 | 75 | 1020.7 |
| 20260501221225 | 53 | 140 | 1.0 | 3.0 | 0.00 | 0.00 | 0.00 | 76 | 1020.7 |
| 20260501214652 | 54 | 140 | 1.0 | 2.0 | 0.00 | 0.00 | 0.00 | 73 | 1020.7 |